sensor_id;sensor_type;location;lat;lon;timestamp;P1;durP1;ratioP1;P2;durP2;ratioP2
79361;SDS011;68830;47.566;19.012;2023-08-24T00:02:37;14.98;;;9.60;;
79361;SDS011;68830;47.566;19.012;2023-08-24T00:05:40;13.52;;;9.90;;
79361;SDS011;68830;47.566;19.012;2023-08-24T00:08:43;10.65;;;9.65;;
79361;SDS011;68830;47.566;19.012;2023-08-24T00:11:45;11.43;;;10.23;;
79361;SDS011;68830;47.566;19.012;2023-08-24T00:14:47;13.20;;;9.95;;
79361;SDS011;68830;47.566;19.012;2023-08-24T00:17:51;12.07;;;9.70;;
79361;SDS011;68830;47.566;19.012;2023-08-24T00:20:53;13.13;;;10.15;;
79361;SDS011;68830;47.566;19.012;2023-08-24T00:23:55;11.00;;;9.90;;
79361;SDS011;68830;47.566;19.012;2023-08-24T00:26:58;10.43;;;9.38;;
79361;SDS011;68830;47.566;19.012;2023-08-24T00:29:59;11.05;;;9.95;;
79361;SDS011;68830;47.566;19.012;2023-08-24T00:33:03;11.10;;;9.73;;
79361;SDS011;68830;47.566;19.012;2023-08-24T00:36:06;10.52;;;8.93;;
79361;SDS011;68830;47.566;19.012;2023-08-24T00:39:08;10.35;;;9.35;;
79361;SDS011;68830;47.566;19.012;2023-08-24T00:42:11;11.40;;;10.10;;
79361;SDS011;68830;47.566;19.012;2023-08-24T00:48:20;10.95;;;9.75;;
79361;SDS011;68830;47.566;19.012;2023-08-24T00:51:27;10.85;;;9.40;;
79361;SDS011;68830;47.566;19.012;2023-08-24T00:54:29;11.35;;;10.00;;
79361;SDS011;68830;47.566;19.012;2023-08-24T00:57:31;11.40;;;10.10;;
79361;SDS011;68830;47.566;19.012;2023-08-24T01:00:34;14.07;;;11.02;;
79361;SDS011;68830;47.566;19.012;2023-08-24T01:03:38;12.20;;;10.85;;
79361;SDS011;68830;47.566;19.012;2023-08-24T01:06:40;11.40;;;10.20;;
79361;SDS011;68830;47.566;19.012;2023-08-24T01:09:42;12.68;;;10.27;;
79361;SDS011;68830;47.566;19.012;2023-08-24T01:12:49;11.38;;;10.32;;
79361;SDS011;68830;47.566;19.012;2023-08-24T01:16:00;11.60;;;10.48;;
79361;SDS011;68830;47.566;19.012;2023-08-24T01:19:10;12.02;;;10.82;;
79361;SDS011;68830;47.566;19.012;2023-08-24T01:22:26;14.38;;;12.23;;
79361;SDS011;68830;47.566;19.012;2023-08-24T01:28:42;13.32;;;11.05;;
79361;SDS011;68830;47.566;19.012;2023-08-24T01:31:47;11.50;;;10.40;;
79361;SDS011;68830;47.566;19.012;2023-08-24T01:34:50;13.40;;;10.07;;
79361;SDS011;68830;47.566;19.012;2023-08-24T01:37:52;14.85;;;10.45;;
79361;SDS011;68830;47.566;19.012;2023-08-24T01:40:56;11.32;;;9.70;;
79361;SDS011;68830;47.566;19.012;2023-08-24T01:44:06;16.08;;;10.25;;
79361;SDS011;68830;47.566;19.012;2023-08-24T01:47:09;14.57;;;11.73;;
79361;SDS011;68830;47.566;19.012;2023-08-24T01:50:13;13.63;;;12.05;;
79361;SDS011;68830;47.566;19.012;2023-08-24T01:53:16;12.98;;;10.57;;
79361;SDS011;68830;47.566;19.012;2023-08-24T01:56:18;12.77;;;11.68;;
79361;SDS011;68830;47.566;19.012;2023-08-24T01:59:22;11.32;;;10.15;;
79361;SDS011;68830;47.566;19.012;2023-08-24T02:02:24;13.90;;;12.52;;
79361;SDS011;68830;47.566;19.012;2023-08-24T02:05:26;11.68;;;10.07;;
79361;SDS011;68830;47.566;19.012;2023-08-24T02:08:30;11.68;;;10.20;;
79361;SDS011;68830;47.566;19.012;2023-08-24T02:11:32;12.18;;;10.63;;
79361;SDS011;68830;47.566;19.012;2023-08-24T02:14:36;14.05;;;11.65;;
79361;SDS011;68830;47.566;19.012;2023-08-24T02:17:38;12.23;;;10.48;;
79361;SDS011;68830;47.566;19.012;2023-08-24T02:20:39;11.68;;;10.38;;
79361;SDS011;68830;47.566;19.012;2023-08-24T02:23:42;13.35;;;11.95;;
79361;SDS011;68830;47.566;19.012;2023-08-24T02:26:44;11.77;;;10.68;;
79361;SDS011;68830;47.566;19.012;2023-08-24T02:29:48;14.30;;;12.48;;
79361;SDS011;68830;47.566;19.012;2023-08-24T02:32:49;15.68;;;12.20;;
79361;SDS011;68830;47.566;19.012;2023-08-24T02:35:52;11.43;;;10.25;;
79361;SDS011;68830;47.566;19.012;2023-08-24T02:38:54;13.05;;;10.93;;
79361;SDS011;68830;47.566;19.012;2023-08-24T02:41:56;12.25;;;10.95;;
79361;SDS011;68830;47.566;19.012;2023-08-24T02:45:00;11.80;;;10.57;;
79361;SDS011;68830;47.566;19.012;2023-08-24T02:48:02;11.88;;;10.65;;
79361;SDS011;68830;47.566;19.012;2023-08-24T02:51:05;11.52;;;10.25;;
79361;SDS011;68830;47.566;19.012;2023-08-24T02:54:07;12.57;;;10.68;;
79361;SDS011;68830;47.566;19.012;2023-08-24T02:57:10;12.40;;;10.57;;
79361;SDS011;68830;47.566;19.012;2023-08-24T03:00:13;12.45;;;11.02;;
79361;SDS011;68830;47.566;19.012;2023-08-24T03:03:16;12.30;;;11.10;;
79361;SDS011;68830;47.566;19.012;2023-08-24T03:06:18;12.52;;;10.70;;
79361;SDS011;68830;47.566;19.012;2023-08-24T03:09:20;13.57;;;11.32;;
79361;SDS011;68830;47.566;19.012;2023-08-24T03:12:22;16.55;;;12.43;;
79361;SDS011;68830;47.566;19.012;2023-08-24T03:15:25;13.13;;;11.10;;
79361;SDS011;68830;47.566;19.012;2023-08-24T03:18:27;12.30;;;11.10;;
79361;SDS011;68830;47.566;19.012;2023-08-24T03:21:29;11.55;;;10.35;;
79361;SDS011;68830;47.566;19.012;2023-08-24T03:24:32;12.10;;;10.90;;
79361;SDS011;68830;47.566;19.012;2023-08-24T03:27:34;11.75;;;10.52;;
79361;SDS011;68830;47.566;19.012;2023-08-24T03:30:38;12.65;;;10.48;;
79361;SDS011;68830;47.566;19.012;2023-08-24T03:33:41;12.88;;;11.57;;
79361;SDS011;68830;47.566;19.012;2023-08-24T03:36:43;14.23;;;10.48;;
79361;SDS011;68830;47.566;19.012;2023-08-24T03:39:45;11.80;;;10.60;;
79361;SDS011;68830;47.566;19.012;2023-08-24T03:42:47;13.20;;;11.18;;
79361;SDS011;68830;47.566;19.012;2023-08-24T03:45:50;12.25;;;10.95;;
79361;SDS011;68830;47.566;19.012;2023-08-24T03:48:52;12.32;;;11.13;;
79361;SDS011;68830;47.566;19.012;2023-08-24T03:51:55;13.70;;;11.77;;
79361;SDS011;68830;47.566;19.012;2023-08-24T03:54:58;13.20;;;11.90;;
79361;SDS011;68830;47.566;19.012;2023-08-24T03:58:00;14.50;;;12.18;;
79361;SDS011;68830;47.566;19.012;2023-08-24T04:01:03;14.82;;;10.93;;
79361;SDS011;68830;47.566;19.012;2023-08-24T04:04:05;14.15;;;10.95;;
79361;SDS011;68830;47.566;19.012;2023-08-24T04:07:08;14.93;;;11.88;;
79361;SDS011;68830;47.566;19.012;2023-08-24T04:10:11;13.68;;;12.30;;
79361;SDS011;68830;47.566;19.012;2023-08-24T04:13:13;13.23;;;11.82;;
79361;SDS011;68830;47.566;19.012;2023-08-24T04:16:16;15.60;;;11.98;;
79361;SDS011;68830;47.566;19.012;2023-08-24T04:19:18;13.15;;;11.30;;
79361;SDS011;68830;47.566;19.012;2023-08-24T04:22:21;13.40;;;11.30;;
79361;SDS011;68830;47.566;19.012;2023-08-24T04:25:23;14.32;;;12.82;;
79361;SDS011;68830;47.566;19.012;2023-08-24T04:28:25;13.77;;;12.18;;
79361;SDS011;68830;47.566;19.012;2023-08-24T04:31:28;16.20;;;12.68;;
79361;SDS011;68830;47.566;19.012;2023-08-24T04:34:30;13.48;;;11.23;;
79361;SDS011;68830;47.566;19.012;2023-08-24T04:37:33;12.65;;;11.35;;
79361;SDS011;68830;47.566;19.012;2023-08-24T04:40:44;12.20;;;11.00;;
79361;SDS011;68830;47.566;19.012;2023-08-24T04:43:48;13.80;;;12.50;;
79361;SDS011;68830;47.566;19.012;2023-08-24T04:46:51;20.90;;;12.55;;
79361;SDS011;68830;47.566;19.012;2023-08-24T04:49:53;16.33;;;12.15;;
79361;SDS011;68830;47.566;19.012;2023-08-24T04:52:56;15.60;;;13.45;;
79361;SDS011;68830;47.566;19.012;2023-08-24T04:55:58;14.45;;;11.93;;
79361;SDS011;68830;47.566;19.012;2023-08-24T04:59:00;14.25;;;12.50;;
79361;SDS011;68830;47.566;19.012;2023-08-24T05:02:05;16.48;;;12.55;;
79361;SDS011;68830;47.566;19.012;2023-08-24T05:05:08;13.85;;;12.38;;
79361;SDS011;68830;47.566;19.012;2023-08-24T05:08:16;14.18;;;12.75;;
79361;SDS011;68830;47.566;19.012;2023-08-24T05:11:18;12.60;;;11.40;;
79361;SDS011;68830;47.566;19.012;2023-08-24T05:14:21;14.07;;;12.73;;
79361;SDS011;68830;47.566;19.012;2023-08-24T05:17:25;13.80;;;11.60;;
79361;SDS011;68830;47.566;19.012;2023-08-24T05:20:29;15.15;;;12.18;;
79361;SDS011;68830;47.566;19.012;2023-08-24T05:23:32;12.65;;;11.35;;
79361;SDS011;68830;47.566;19.012;2023-08-24T05:26:35;14.40;;;11.52;;
79361;SDS011;68830;47.566;19.012;2023-08-24T05:29:37;13.38;;;11.32;;
79361;SDS011;68830;47.566;19.012;2023-08-24T05:32:40;14.00;;;10.98;;
79361;SDS011;68830;47.566;19.012;2023-08-24T05:35:42;13.75;;;10.25;;
79361;SDS011;68830;47.566;19.012;2023-08-24T05:38:44;13.35;;;11.07;;
79361;SDS011;68830;47.566;19.012;2023-08-24T05:41:51;13.27;;;11.88;;
79361;SDS011;68830;47.566;19.012;2023-08-24T05:44:54;15.75;;;10.90;;
79361;SDS011;68830;47.566;19.012;2023-08-24T05:47:57;12.95;;;10.88;;
79361;SDS011;68830;47.566;19.012;2023-08-24T05:51:00;12.35;;;11.05;;
79361;SDS011;68830;47.566;19.012;2023-08-24T05:54:02;12.70;;;9.80;;
79361;SDS011;68830;47.566;19.012;2023-08-24T05:57:05;15.93;;;10.40;;
79361;SDS011;68830;47.566;19.012;2023-08-24T06:00:07;12.80;;;9.85;;
79361;SDS011;68830;47.566;19.012;2023-08-24T06:03:13;14.55;;;13.35;;
79361;SDS011;68830;47.566;19.012;2023-08-24T06:06:15;14.35;;;13.00;;
79361;SDS011;68830;47.566;19.012;2023-08-24T06:09:18;13.25;;;12.15;;
79361;SDS011;68830;47.566;19.012;2023-08-24T06:12:20;13.32;;;12.13;;
79361;SDS011;68830;47.566;19.012;2023-08-24T06:15:21;15.13;;;13.63;;
79361;SDS011;68830;47.566;19.012;2023-08-24T06:18:27;14.05;;;12.85;;
79361;SDS011;68830;47.566;19.012;2023-08-24T06:21:29;16.45;;;13.80;;
79361;SDS011;68830;47.566;19.012;2023-08-24T06:24:31;13.90;;;12.60;;
79361;SDS011;68830;47.566;19.012;2023-08-24T06:27:33;19.45;;;13.93;;
79361;SDS011;68830;47.566;19.012;2023-08-24T06:30:36;14.95;;;12.73;;
79361;SDS011;68830;47.566;19.012;2023-08-24T06:33:42;11.25;;;9.95;;
79361;SDS011;68830;47.566;19.012;2023-08-24T06:36:44;11.52;;;10.38;;
79361;SDS011;68830;47.566;19.012;2023-08-24T06:39:47;11.50;;;10.07;;
79361;SDS011;68830;47.566;19.012;2023-08-24T06:42:49;11.23;;;10.13;;
79361;SDS011;68830;47.566;19.012;2023-08-24T06:45:51;10.93;;;9.25;;
79361;SDS011;68830;47.566;19.012;2023-08-24T06:48:54;13.02;;;9.77;;
79361;SDS011;68830;47.566;19.012;2023-08-24T06:51:56;10.05;;;9.10;;
79361;SDS011;68830;47.566;19.012;2023-08-24T06:54:59;10.38;;;9.13;;
79361;SDS011;68830;47.566;19.012;2023-08-24T06:58:02;9.65;;;8.68;;
79361;SDS011;68830;47.566;19.012;2023-08-24T07:01:06;10.30;;;9.30;;
79361;SDS011;68830;47.566;19.012;2023-08-24T07:04:10;12.68;;;10.82;;
79361;SDS011;68830;47.566;19.012;2023-08-24T07:07:12;12.38;;;11.27;;
79361;SDS011;68830;47.566;19.012;2023-08-24T07:10:14;11.73;;;10.63;;
79361;SDS011;68830;47.566;19.012;2023-08-24T07:13:17;12.70;;;11.40;;
79361;SDS011;68830;47.566;19.012;2023-08-24T07:16:19;14.82;;;11.57;;
79361;SDS011;68830;47.566;19.012;2023-08-24T07:19:22;13.15;;;11.13;;
79361;SDS011;68830;47.566;19.012;2023-08-24T07:22:25;12.50;;;10.95;;
79361;SDS011;68830;47.566;19.012;2023-08-24T07:25:30;12.65;;;10.95;;
79361;SDS011;68830;47.566;19.012;2023-08-24T07:28:32;11.88;;;10.68;;
79361;SDS011;68830;47.566;19.012;2023-08-24T07:31:33;13.07;;;10.98;;
79361;SDS011;68830;47.566;19.012;2023-08-24T07:34:41;12.43;;;10.75;;
79361;SDS011;68830;47.566;19.012;2023-08-24T07:37:43;11.90;;;10.70;;
79361;SDS011;68830;47.566;19.012;2023-08-24T07:40:45;11.77;;;10.50;;
79361;SDS011;68830;47.566;19.012;2023-08-24T07:43:47;11.13;;;10.13;;
79361;SDS011;68830;47.566;19.012;2023-08-24T07:46:49;12.88;;;10.73;;
79361;SDS011;68830;47.566;19.012;2023-08-24T07:49:53;12.93;;;10.55;;
79361;SDS011;68830;47.566;19.012;2023-08-24T07:52:55;10.45;;;9.35;;
79361;SDS011;68830;47.566;19.012;2023-08-24T07:55:58;12.13;;;9.98;;
79361;SDS011;68830;47.566;19.012;2023-08-24T07:59:00;10.02;;;8.93;;
79361;SDS011;68830;47.566;19.012;2023-08-24T08:02:02;11.10;;;10.02;;
79361;SDS011;68830;47.566;19.012;2023-08-24T08:05:06;9.27;;;8.25;;
79361;SDS011;68830;47.566;19.012;2023-08-24T08:08:09;9.77;;;8.77;;
79361;SDS011;68830;47.566;19.012;2023-08-24T08:11:11;8.88;;;8.07;;
79361;SDS011;68830;47.566;19.012;2023-08-24T08:14:13;11.40;;;8.43;;
79361;SDS011;68830;47.566;19.012;2023-08-24T08:17:15;9.80;;;8.77;;
79361;SDS011;68830;47.566;19.012;2023-08-24T08:20:19;10.93;;;8.32;;
79361;SDS011;68830;47.566;19.012;2023-08-24T08:23:21;9.63;;;8.30;;
79361;SDS011;68830;47.566;19.012;2023-08-24T08:26:23;10.15;;;9.13;;
79361;SDS011;68830;47.566;19.012;2023-08-24T08:29:25;8.98;;;7.88;;
79361;SDS011;68830;47.566;19.012;2023-08-24T08:32:27;7.85;;;7.03;;
79361;SDS011;68830;47.566;19.012;2023-08-24T08:35:31;9.45;;;7.30;;
79361;SDS011;68830;47.566;19.012;2023-08-24T08:38:33;9.23;;;7.93;;
79361;SDS011;68830;47.566;19.012;2023-08-24T08:41:38;10.55;;;8.25;;
79361;SDS011;68830;47.566;19.012;2023-08-24T08:44:45;9.52;;;7.85;;
79361;SDS011;68830;47.566;19.012;2023-08-24T08:47:48;13.13;;;8.55;;
79361;SDS011;68830;47.566;19.012;2023-08-24T08:50:53;11.60;;;7.25;;
79361;SDS011;68830;47.566;19.012;2023-08-24T08:53:57;7.72;;;7.03;;
79361;SDS011;68830;47.566;19.012;2023-08-24T08:56:59;9.40;;;7.78;;
79361;SDS011;68830;47.566;19.012;2023-08-24T09:00:02;8.43;;;7.60;;
79361;SDS011;68830;47.566;19.012;2023-08-24T09:03:06;9.38;;;7.85;;
79361;SDS011;68830;47.566;19.012;2023-08-24T09:06:11;9.82;;;7.30;;
79361;SDS011;68830;47.566;19.012;2023-08-24T09:09:13;8.32;;;7.53;;
79361;SDS011;68830;47.566;19.012;2023-08-24T09:12:16;8.75;;;7.97;;
79361;SDS011;68830;47.566;19.012;2023-08-24T09:15:24;8.65;;;6.78;;
79361;SDS011;68830;47.566;19.012;2023-08-24T09:18:33;7.50;;;6.80;;
79361;SDS011;68830;47.566;19.012;2023-08-24T09:21:39;8.50;;;6.57;;
79361;SDS011;68830;47.566;19.012;2023-08-24T09:24:43;15.13;;;8.63;;
79361;SDS011;68830;47.566;19.012;2023-08-24T09:27:46;10.80;;;8.50;;
79361;SDS011;68830;47.566;19.012;2023-08-24T09:30:59;9.38;;;8.07;;
79361;SDS011;68830;47.566;19.012;2023-08-24T09:34:02;7.50;;;6.32;;
79361;SDS011;68830;47.566;19.012;2023-08-24T09:37:11;11.00;;;8.27;;
79361;SDS011;68830;47.566;19.012;2023-08-24T09:40:15;9.07;;;8.15;;
79361;SDS011;68830;47.566;19.012;2023-08-24T09:43:17;8.63;;;7.80;;
79361;SDS011;68830;47.566;19.012;2023-08-24T09:46:19;9.50;;;8.35;;
79361;SDS011;68830;47.566;19.012;2023-08-24T09:49:24;9.55;;;8.15;;
79361;SDS011;68830;47.566;19.012;2023-08-24T09:52:31;9.10;;;7.68;;
79361;SDS011;68830;47.566;19.012;2023-08-24T09:55:34;11.05;;;7.32;;
79361;SDS011;68830;47.566;19.012;2023-08-24T09:58:41;8.07;;;5.90;;
79361;SDS011;68830;47.566;19.012;2023-08-24T10:01:47;6.85;;;5.68;;
79361;SDS011;68830;47.566;19.012;2023-08-24T10:04:50;7.53;;;5.55;;
79361;SDS011;68830;47.566;19.012;2023-08-24T10:07:56;6.95;;;5.63;;
79361;SDS011;68830;47.566;19.012;2023-08-24T10:14:04;7.03;;;6.03;;
79361;SDS011;68830;47.566;19.012;2023-08-24T10:17:12;6.25;;;5.47;;
79361;SDS011;68830;47.566;19.012;2023-08-24T10:20:17;7.30;;;5.28;;
79361;SDS011;68830;47.566;19.012;2023-08-24T10:26:24;5.80;;;5.15;;
79361;SDS011;68830;47.566;19.012;2023-08-24T10:29:28;5.40;;;4.90;;
79361;SDS011;68830;47.566;19.012;2023-08-24T10:32:31;6.93;;;5.68;;
79361;SDS011;68830;47.566;19.012;2023-08-24T10:35:33;6.10;;;5.05;;
79361;SDS011;68830;47.566;19.012;2023-08-24T10:38:40;6.07;;;5.45;;
79361;SDS011;68830;47.566;19.012;2023-08-24T10:41:46;6.63;;;5.70;;
79361;SDS011;68830;47.566;19.012;2023-08-24T10:44:49;7.70;;;5.63;;
79361;SDS011;68830;47.566;19.012;2023-08-24T10:47:52;7.00;;;6.20;;
79361;SDS011;68830;47.566;19.012;2023-08-24T10:54:30;6.47;;;5.90;;
79361;SDS011;68830;47.566;19.012;2023-08-24T10:57:34;6.00;;;5.43;;
79361;SDS011;68830;47.566;19.012;2023-08-24T11:00:37;8.98;;;5.50;;
79361;SDS011;68830;47.566;19.012;2023-08-24T11:03:41;10.30;;;7.95;;
79361;SDS011;68830;47.566;19.012;2023-08-24T11:06:51;9.20;;;6.55;;
79361;SDS011;68830;47.566;19.012;2023-08-24T11:09:56;10.40;;;6.90;;
79361;SDS011;68830;47.566;19.012;2023-08-24T11:13:05;11.70;;;7.10;;
79361;SDS011;68830;47.566;19.012;2023-08-24T11:16:08;7.07;;;6.30;;
79361;SDS011;68830;47.566;19.012;2023-08-24T11:19:46;7.55;;;6.65;;
79361;SDS011;68830;47.566;19.012;2023-08-24T11:22:50;10.43;;;6.85;;
79361;SDS011;68830;47.566;19.012;2023-08-24T11:25:58;6.82;;;6.22;;
79361;SDS011;68830;47.566;19.012;2023-08-24T11:29:04;6.63;;;5.95;;
79361;SDS011;68830;47.566;19.012;2023-08-24T11:32:06;6.20;;;5.60;;
79361;SDS011;68830;47.566;19.012;2023-08-24T11:35:10;6.78;;;5.45;;
79361;SDS011;68830;47.566;19.012;2023-08-24T11:38:13;6.40;;;5.80;;
79361;SDS011;68830;47.566;19.012;2023-08-24T11:41:17;8.25;;;5.75;;
79361;SDS011;68830;47.566;19.012;2023-08-24T11:44:21;6.57;;;5.95;;
79361;SDS011;68830;47.566;19.012;2023-08-24T11:47:30;8.48;;;6.00;;
79361;SDS011;68830;47.566;19.012;2023-08-24T11:50:32;8.07;;;6.88;;
79361;SDS011;68830;47.566;19.012;2023-08-24T11:53:38;6.72;;;5.93;;
79361;SDS011;68830;47.566;19.012;2023-08-24T11:56:42;7.45;;;5.28;;
79361;SDS011;68830;47.566;19.012;2023-08-24T11:59:44;6.18;;;5.53;;
79361;SDS011;68830;47.566;19.012;2023-08-24T12:02:48;8.32;;;5.97;;
79361;SDS011;68830;47.566;19.012;2023-08-24T12:05:51;7.72;;;6.20;;
79361;SDS011;68830;47.566;19.012;2023-08-24T12:08:53;6.07;;;5.47;;
79361;SDS011;68830;47.566;19.012;2023-08-24T12:11:56;11.20;;;6.30;;
79361;SDS011;68830;47.566;19.012;2023-08-24T12:14:59;6.60;;;5.45;;
79361;SDS011;68830;47.566;19.012;2023-08-24T12:18:06;7.25;;;5.25;;
79361;SDS011;68830;47.566;19.012;2023-08-24T12:21:09;6.60;;;6.00;;
79361;SDS011;68830;47.566;19.012;2023-08-24T12:24:13;7.72;;;5.85;;
79361;SDS011;68830;47.566;19.012;2023-08-24T12:27:20;10.02;;;5.50;;
79361;SDS011;68830;47.566;19.012;2023-08-24T12:30:24;7.75;;;5.38;;
79361;SDS011;68830;47.566;19.012;2023-08-24T12:33:26;7.90;;;5.75;;
79361;SDS011;68830;47.566;19.012;2023-08-24T12:36:29;6.68;;;5.00;;
79361;SDS011;68830;47.566;19.012;2023-08-24T12:39:34;6.13;;;5.32;;
79361;SDS011;68830;47.566;19.012;2023-08-24T12:42:39;6.57;;;5.22;;
79361;SDS011;68830;47.566;19.012;2023-08-24T12:45:41;5.43;;;4.93;;
79361;SDS011;68830;47.566;19.012;2023-08-24T12:48:43;6.13;;;5.18;;
79361;SDS011;68830;47.566;19.012;2023-08-24T12:51:46;5.88;;;5.38;;
79361;SDS011;68830;47.566;19.012;2023-08-24T12:54:48;5.90;;;5.30;;
79361;SDS011;68830;47.566;19.012;2023-08-24T12:57:52;5.95;;;4.93;;
79361;SDS011;68830;47.566;19.012;2023-08-24T13:00:57;9.00;;;5.30;;
79361;SDS011;68830;47.566;19.012;2023-08-24T13:03:59;9.10;;;4.72;;
79361;SDS011;68830;47.566;19.012;2023-08-24T13:07:01;7.60;;;5.60;;
79361;SDS011;68830;47.566;19.012;2023-08-24T13:10:04;5.25;;;4.72;;
79361;SDS011;68830;47.566;19.012;2023-08-24T13:13:09;5.82;;;5.15;;
79361;SDS011;68830;47.566;19.012;2023-08-24T13:16:11;5.20;;;4.60;;
79361;SDS011;68830;47.566;19.012;2023-08-24T13:19:13;7.47;;;5.00;;
79361;SDS011;68830;47.566;19.012;2023-08-24T13:22:16;5.72;;;4.97;;
79361;SDS011;68830;47.566;19.012;2023-08-24T13:25:18;6.70;;;5.05;;
79361;SDS011;68830;47.566;19.012;2023-08-24T13:28:21;5.53;;;4.95;;
79361;SDS011;68830;47.566;19.012;2023-08-24T13:31:23;5.72;;;4.00;;
79361;SDS011;68830;47.566;19.012;2023-08-24T13:34:25;7.72;;;5.28;;
79361;SDS011;68830;47.566;19.012;2023-08-24T13:37:28;8.80;;;4.60;;
79361;SDS011;68830;47.566;19.012;2023-08-24T13:40:30;9.85;;;5.45;;
79361;SDS011;68830;47.566;19.012;2023-08-24T13:43:34;5.57;;;5.07;;
79361;SDS011;68830;47.566;19.012;2023-08-24T13:46:36;9.15;;;5.15;;
79361;SDS011;68830;47.566;19.012;2023-08-24T13:49:39;7.03;;;5.18;;
79361;SDS011;68830;47.566;19.012;2023-08-24T13:52:41;6.47;;;5.28;;
79361;SDS011;68830;47.566;19.012;2023-08-24T13:55:44;8.25;;;4.95;;
79361;SDS011;68830;47.566;19.012;2023-08-24T13:58:47;6.45;;;4.65;;
79361;SDS011;68830;47.566;19.012;2023-08-24T14:01:49;5.72;;;4.47;;
79361;SDS011;68830;47.566;19.012;2023-08-24T14:04:52;6.13;;;4.35;;
79361;SDS011;68830;47.566;19.012;2023-08-24T14:07:54;7.93;;;4.50;;
79361;SDS011;68830;47.566;19.012;2023-08-24T14:10:56;5.65;;;4.32;;
79361;SDS011;68830;47.566;19.012;2023-08-24T14:13:59;5.25;;;4.60;;
79361;SDS011;68830;47.566;19.012;2023-08-24T14:17:01;9.02;;;5.53;;
79361;SDS011;68830;47.566;19.012;2023-08-24T14:20:04;6.38;;;4.38;;
79361;SDS011;68830;47.566;19.012;2023-08-24T14:23:06;6.72;;;4.70;;
79361;SDS011;68830;47.566;19.012;2023-08-24T14:26:09;5.55;;;4.65;;
79361;SDS011;68830;47.566;19.012;2023-08-24T14:29:16;7.50;;;4.80;;
79361;SDS011;68830;47.566;19.012;2023-08-24T14:32:18;5.88;;;5.10;;
79361;SDS011;68830;47.566;19.012;2023-08-24T14:35:21;6.85;;;4.93;;
79361;SDS011;68830;47.566;19.012;2023-08-24T14:38:22;7.72;;;5.15;;
79361;SDS011;68830;47.566;19.012;2023-08-24T14:41:24;8.38;;;4.75;;
79361;SDS011;68830;47.566;19.012;2023-08-24T14:44:28;5.25;;;4.40;;
79361;SDS011;68830;47.566;19.012;2023-08-24T14:47:30;5.40;;;4.90;;
79361;SDS011;68830;47.566;19.012;2023-08-24T14:50:33;8.35;;;5.07;;
79361;SDS011;68830;47.566;19.012;2023-08-24T14:53:34;6.60;;;4.78;;
79361;SDS011;68830;47.566;19.012;2023-08-24T14:56:37;6.00;;;5.50;;
79361;SDS011;68830;47.566;19.012;2023-08-24T14:59:41;7.18;;;5.15;;
79361;SDS011;68830;47.566;19.012;2023-08-24T15:02:43;6.07;;;4.80;;
79361;SDS011;68830;47.566;19.012;2023-08-24T15:05:56;6.93;;;5.13;;
79361;SDS011;68830;47.566;19.012;2023-08-24T15:09:00;8.00;;;4.97;;
79361;SDS011;68830;47.566;19.012;2023-08-24T15:12:02;6.43;;;5.40;;
79361;SDS011;68830;47.566;19.012;2023-08-24T15:15:07;6.75;;;4.68;;
79361;SDS011;68830;47.566;19.012;2023-08-24T15:18:11;6.18;;;5.00;;
79361;SDS011;68830;47.566;19.012;2023-08-24T15:21:13;9.30;;;5.28;;
79361;SDS011;68830;47.566;19.012;2023-08-24T15:24:16;7.63;;;5.13;;
79361;SDS011;68830;47.566;19.012;2023-08-24T15:27:18;7.75;;;5.20;;
79361;SDS011;68830;47.566;19.012;2023-08-24T15:30:22;6.82;;;4.88;;
79361;SDS011;68830;47.566;19.012;2023-08-24T15:33:24;5.20;;;4.47;;
79361;SDS011;68830;47.566;19.012;2023-08-24T15:36:26;6.72;;;5.07;;
79361;SDS011;68830;47.566;19.012;2023-08-24T15:39:28;5.53;;;4.93;;
79361;SDS011;68830;47.566;19.012;2023-08-24T15:42:36;6.55;;;4.95;;
79361;SDS011;68830;47.566;19.012;2023-08-24T15:45:40;5.78;;;4.72;;
79361;SDS011;68830;47.566;19.012;2023-08-24T15:48:42;7.55;;;5.05;;
79361;SDS011;68830;47.566;19.012;2023-08-24T15:51:44;7.15;;;4.63;;
79361;SDS011;68830;47.566;19.012;2023-08-24T15:54:46;4.72;;;4.30;;
79361;SDS011;68830;47.566;19.012;2023-08-24T15:57:49;6.30;;;4.72;;
79361;SDS011;68830;47.566;19.012;2023-08-24T16:00:53;4.97;;;4.28;;
79361;SDS011;68830;47.566;19.012;2023-08-24T16:03:55;5.72;;;5.10;;
79361;SDS011;68830;47.566;19.012;2023-08-24T16:06:57;5.93;;;4.63;;
79361;SDS011;68830;47.566;19.012;2023-08-24T16:09:59;5.75;;;5.25;;
79361;SDS011;68830;47.566;19.012;2023-08-24T16:13:01;10.80;;;4.68;;
79361;SDS011;68830;47.566;19.012;2023-08-24T16:16:05;9.38;;;5.90;;
79361;SDS011;68830;47.566;19.012;2023-08-24T16:19:07;13.80;;;8.05;;
79361;SDS011;68830;47.566;19.012;2023-08-24T16:22:10;6.65;;;5.45;;
79361;SDS011;68830;47.566;19.012;2023-08-24T16:25:12;8.82;;;6.07;;
79361;SDS011;68830;47.566;19.012;2023-08-24T16:28:14;9.18;;;5.88;;
79361;SDS011;68830;47.566;19.012;2023-08-24T16:31:18;6.53;;;5.93;;
79361;SDS011;68830;47.566;19.012;2023-08-24T16:34:20;7.00;;;5.85;;
79361;SDS011;68830;47.566;19.012;2023-08-24T16:37:24;8.82;;;5.80;;
79361;SDS011;68830;47.566;19.012;2023-08-24T16:40:26;7.18;;;6.05;;
79361;SDS011;68830;47.566;19.012;2023-08-24T16:43:28;8.18;;;6.03;;
79361;SDS011;68830;47.566;19.012;2023-08-24T16:46:32;10.93;;;7.15;;
79361;SDS011;68830;47.566;19.012;2023-08-24T16:49:34;20.10;;;6.63;;
79361;SDS011;68830;47.566;19.012;2023-08-24T16:52:37;14.45;;;7.50;;
79361;SDS011;68830;47.566;19.012;2023-08-24T16:55:39;7.07;;;6.13;;
79361;SDS011;68830;47.566;19.012;2023-08-24T16:58:41;8.40;;;6.80;;
79361;SDS011;68830;47.566;19.012;2023-08-24T17:01:45;9.13;;;5.80;;
79361;SDS011;68830;47.566;19.012;2023-08-24T17:04:47;9.85;;;6.35;;
79361;SDS011;68830;47.566;19.012;2023-08-24T17:08:01;7.43;;;6.32;;
79361;SDS011;68830;47.566;19.012;2023-08-24T17:11:05;9.38;;;5.97;;
79361;SDS011;68830;47.566;19.012;2023-08-24T17:14:07;10.15;;;6.68;;
79361;SDS011;68830;47.566;19.012;2023-08-24T17:17:11;10.15;;;7.53;;
79361;SDS011;68830;47.566;19.012;2023-08-24T17:20:13;13.25;;;8.80;;
79361;SDS011;68830;47.566;19.012;2023-08-24T17:23:15;12.88;;;10.25;;
79361;SDS011;68830;47.566;19.012;2023-08-24T17:26:17;7.78;;;6.82;;
79361;SDS011;68830;47.566;19.012;2023-08-24T17:29:20;10.43;;;7.75;;
79361;SDS011;68830;47.566;19.012;2023-08-24T17:32:24;7.20;;;6.43;;
79361;SDS011;68830;47.566;19.012;2023-08-24T17:35:28;14.90;;;10.32;;
79361;SDS011;68830;47.566;19.012;2023-08-24T17:38:31;8.13;;;7.32;;
79361;SDS011;68830;47.566;19.012;2023-08-24T17:41:36;10.73;;;8.00;;
79361;SDS011;68830;47.566;19.012;2023-08-24T17:44:42;7.43;;;6.72;;
79361;SDS011;68830;47.566;19.012;2023-08-24T17:47:46;6.20;;;5.63;;
79361;SDS011;68830;47.566;19.012;2023-08-24T17:50:52;8.15;;;5.85;;
79361;SDS011;68830;47.566;19.012;2023-08-24T17:53:54;6.60;;;5.90;;
79361;SDS011;68830;47.566;19.012;2023-08-24T17:56:59;9.23;;;6.30;;
79361;SDS011;68830;47.566;19.012;2023-08-24T18:00:03;7.63;;;6.80;;
79361;SDS011;68830;47.566;19.012;2023-08-24T18:03:08;7.85;;;5.72;;
79361;SDS011;68830;47.566;19.012;2023-08-24T18:06:10;6.90;;;5.55;;
79361;SDS011;68830;47.566;19.012;2023-08-24T18:09:12;6.60;;;6.00;;
79361;SDS011;68830;47.566;19.012;2023-08-24T18:12:15;9.52;;;6.80;;